createdAt,value
2023-04-17T00:01:56.994Z,99.90
2023-04-17T00:04:24.026Z,99.90
2023-04-17T00:06:54.134Z,99.90
2023-04-17T00:09:22.373Z,99.90
2023-04-17T00:11:49.647Z,99.90
2023-04-17T00:14:16.528Z,99.90
2023-04-17T00:16:43.767Z,99.90
2023-04-17T00:19:11.293Z,99.90
2023-04-17T00:21:38.788Z,99.90
2023-04-17T00:24:06.112Z,99.90
2023-04-17T00:26:34.662Z,99.90
2023-04-17T00:29:02.079Z,99.90
2023-04-17T00:31:29.067Z,99.90
2023-04-17T00:33:56.448Z,99.90
2023-04-17T00:36:23.303Z,99.90
2023-04-17T00:38:50.544Z,99.90
2023-04-17T00:41:17.842Z,99.90
2023-04-17T00:43:46.445Z,99.90
2023-04-17T00:46:13.537Z,99.90
2023-04-17T00:48:41.334Z,99.90
2023-04-17T00:51:08.583Z,99.90
2023-04-17T00:53:36.865Z,99.90
2023-04-17T00:56:05.559Z,99.90
2023-04-17T00:58:33.265Z,99.90
2023-04-17T01:01:01.569Z,99.90
2023-04-17T01:03:30.166Z,99.90
2023-04-17T01:05:57.343Z,99.90
2023-04-17T01:08:24.751Z,99.90
2023-04-17T01:10:51.663Z,99.90
2023-04-17T01:13:18.674Z,99.90
2023-04-17T01:15:46.928Z,99.90
2023-04-17T01:18:16.918Z,99.90
2023-04-17T01:20:43.810Z,99.90
2023-04-17T01:23:12.054Z,99.90
2023-04-17T01:25:40.411Z,99.90
2023-04-17T01:28:07.815Z,99.90
2023-04-17T01:30:35.298Z,99.90
2023-04-17T01:33:02.685Z,99.90
2023-04-17T01:35:29.609Z,99.90
2023-04-17T01:37:56.914Z,99.90
2023-04-17T01:40:23.801Z,99.90
2023-04-17T01:42:52.360Z,99.90
2023-04-17T01:45:19.360Z,99.90
2023-04-17T01:47:47.559Z,99.90
2023-04-17T01:50:14.604Z,99.90
2023-04-17T01:52:41.796Z,99.90
2023-04-17T01:55:09.559Z,99.90
2023-04-17T01:57:37.028Z,99.90
2023-04-17T02:00:10.665Z,99.90
2023-04-17T02:02:38.055Z,99.90
2023-04-17T02:05:05.855Z,99.90
2023-04-17T02:07:33.003Z,99.90
2023-04-17T02:09:59.911Z,99.90
2023-04-17T02:12:27.111Z,99.90
2023-04-17T02:14:54.014Z,99.90
2023-04-17T02:17:22.681Z,99.90
2023-04-17T02:19:49.737Z,99.90
2023-04-17T02:22:18.950Z,99.90
2023-04-17T02:24:45.898Z,99.90
2023-04-17T02:27:13.155Z,99.90
2023-04-17T02:29:40.028Z,99.90
2023-04-17T02:32:07.233Z,99.90
2023-04-17T02:34:35.629Z,99.90
2023-04-17T02:37:02.563Z,99.90
2023-04-17T02:39:31.110Z,99.90
2023-04-17T02:41:58.405Z,99.90
2023-04-17T02:44:25.442Z,99.90
2023-04-17T02:46:52.666Z,99.90
2023-04-17T02:49:19.583Z,99.90
2023-04-17T02:51:48.345Z,99.90
2023-04-17T02:54:15.259Z,99.90
2023-04-17T02:56:42.252Z,99.90
2023-04-17T02:59:09.445Z,99.90
2023-04-17T03:01:38.987Z,99.90
2023-04-17T03:04:06.202Z,99.90
2023-04-17T03:06:33.903Z,99.90
2023-04-17T03:09:02.946Z,99.90
2023-04-17T03:11:30.150Z,99.90
2023-04-17T03:13:56.959Z,99.90
2023-04-17T03:16:24.410Z,99.90
2023-04-17T03:18:51.342Z,99.90
2023-04-17T03:21:18.258Z,99.90
2023-04-17T03:23:45.273Z,99.90
2023-04-17T03:26:14.396Z,99.90
2023-04-17T03:28:41.232Z,99.90
2023-04-17T03:31:08.497Z,99.90
2023-04-17T03:33:35.426Z,99.90
2023-04-17T03:36:02.643Z,99.90
2023-04-17T03:38:29.620Z,99.90
2023-04-17T03:40:56.943Z,99.90
2023-04-17T03:43:25.330Z,99.90
2023-04-17T03:45:53.015Z,99.90
2023-04-17T03:48:19.908Z,99.90
2023-04-17T03:50:47.324Z,99.90
2023-04-17T03:53:14.260Z,99.90
2023-04-17T03:55:41.643Z,99.90
2023-04-17T03:58:08.510Z,99.90
2023-04-17T04:00:37.746Z,99.90
2023-04-17T04:03:04.945Z,99.90
2023-04-17T04:05:32.310Z,99.90
2023-04-17T04:07:59.324Z,99.90
2023-04-17T04:10:26.632Z,99.90
2023-04-17T04:12:53.643Z,99.90
2023-04-17T04:15:21.030Z,99.90
2023-04-17T04:17:49.274Z,99.90
2023-04-17T04:20:16.642Z,99.90
2023-04-17T04:22:44.676Z,99.90
2023-04-17T04:25:12.662Z,99.90
2023-04-17T04:27:39.699Z,99.90
2023-04-17T04:30:10.655Z,99.90
2023-04-17T04:32:37.673Z,99.90
2023-04-17T04:35:07.861Z,99.90
2023-04-17T04:37:35.970Z,99.90
2023-04-17T04:40:10.959Z,99.90
2023-04-17T04:42:39.660Z,99.90
2023-04-17T04:45:08.213Z,99.90
2023-04-17T04:47:36.067Z,99.90
2023-04-17T04:50:03.537Z,99.90
2023-04-17T04:52:32.150Z,99.90
2023-04-17T04:54:59.398Z,99.90
2023-04-17T04:57:27.029Z,99.90
2023-04-17T04:59:54.322Z,99.90
2023-04-17T05:02:21.492Z,99.90
2023-04-17T05:04:48.848Z,99.90
2023-04-17T05:07:15.926Z,99.90
2023-04-17T05:09:44.560Z,99.90
2023-04-17T05:12:11.485Z,99.90
2023-04-17T05:14:39.750Z,99.90
2023-04-17T05:17:07.198Z,99.90
2023-04-17T05:19:34.479Z,99.90
2023-04-17T05:22:01.445Z,99.90
2023-04-17T05:24:28.732Z,99.90
2023-04-17T05:26:57.223Z,99.90
2023-04-17T05:29:25.735Z,99.90
2023-04-17T05:31:52.838Z,99.90
2023-04-17T05:34:20.146Z,99.90
2023-04-17T05:36:47.368Z,99.90
2023-04-17T05:39:14.274Z,99.90
2023-04-17T05:41:41.508Z,99.90
2023-04-17T05:44:09.900Z,99.90
2023-04-17T05:46:37.203Z,99.90
2023-04-17T05:49:04.131Z,99.90
2023-04-17T05:51:31.385Z,99.90
2023-04-17T05:53:58.323Z,99.90
2023-04-17T05:56:26.258Z,99.90
2023-04-17T05:58:53.097Z,99.90
2023-04-17T06:01:22.788Z,99.90
2023-04-17T06:03:49.814Z,99.90
2023-04-17T06:06:17.411Z,99.90
2023-04-17T06:08:44.586Z,99.90
2023-04-17T06:11:12.235Z,99.90
2023-04-17T06:13:39.192Z,99.90
2023-04-17T06:16:06.948Z,99.90
2023-04-17T06:18:35.222Z,98.30
2023-04-17T06:21:02.404Z,94.20
2023-04-17T06:23:29.360Z,82.70
2023-04-17T06:25:57.044Z,66.30
2023-04-17T06:28:24.084Z,73.80
2023-04-17T06:30:51.151Z,66.50
2023-04-17T06:33:18.039Z,67.80
2023-04-17T06:35:46.589Z,62.00
2023-04-17T06:38:13.727Z,40.50
2023-04-17T06:40:40.829Z,34.80
2023-04-17T06:43:07.698Z,28.10
2023-04-17T06:45:34.844Z,20.50
2023-04-17T06:48:02.088Z,16.40
2023-04-17T06:50:29.586Z,9.50
2023-04-17T06:52:57.791Z,1.00
2023-04-17T06:55:24.998Z,1.00
2023-04-17T06:57:51.991Z,1.00
2023-04-17T07:00:20.850Z,1.00
2023-04-17T07:02:47.910Z,1.00
2023-04-17T07:05:14.940Z,1.00
2023-04-17T07:07:41.910Z,1.00
2023-04-17T07:10:10.692Z,1.00
2023-04-17T07:12:37.704Z,1.00
2023-04-17T07:15:05.182Z,1.00
2023-04-17T07:17:32.437Z,1.00
2023-04-17T07:19:59.371Z,1.00
2023-04-17T07:22:27.395Z,1.00
2023-04-17T07:24:54.428Z,1.00
2023-04-17T07:27:22.981Z,1.00
2023-04-17T07:29:54.644Z,1.00
2023-04-17T07:32:22.258Z,1.00
2023-04-17T07:34:49.160Z,1.00
2023-04-17T07:37:16.252Z,1.00
2023-04-17T07:39:43.282Z,1.00
2023-04-17T07:42:11.708Z,1.00
2023-04-17T07:44:39.977Z,1.00
2023-04-17T07:47:07.313Z,1.00
2023-04-17T07:49:34.387Z,1.00
2023-04-17T07:52:01.703Z,1.00
2023-04-17T07:54:28.552Z,1.00
2023-04-17T07:56:58.591Z,1.00
2023-04-17T07:59:25.517Z,1.00
2023-04-17T08:01:53.862Z,1.00
2023-04-17T08:04:21.250Z,1.00
2023-04-17T08:06:49.149Z,1.00
2023-04-17T08:09:15.989Z,1.00
2023-04-17T08:11:56.276Z,1.00
2023-04-17T08:14:24.429Z,1.00
2023-04-17T08:16:52.834Z,1.00
2023-04-17T08:19:19.835Z,1.00
2023-04-17T08:21:47.756Z,1.00
2023-04-17T08:24:14.998Z,1.00
2023-04-17T08:26:43.149Z,1.00
2023-04-17T08:29:10.035Z,1.00
2023-04-17T08:31:37.008Z,1.00
2023-04-17T08:34:13.810Z,1.00
2023-04-17T08:36:42.697Z,1.00
2023-04-17T08:39:12.022Z,1.00
2023-04-17T08:41:44.555Z,1.00
2023-04-17T08:44:11.380Z,1.00
2023-04-17T08:46:39.621Z,1.00
2023-04-17T08:49:08.196Z,1.00
2023-04-17T08:51:36.120Z,1.00
2023-04-17T08:54:03.036Z,1.00
2023-04-17T08:56:30.949Z,1.00
2023-04-17T08:58:58.118Z,1.00
2023-04-17T09:01:25.445Z,1.00
2023-04-17T09:03:52.566Z,1.00
2023-04-17T09:06:21.389Z,1.00
2023-04-17T09:08:59.191Z,1.00
2023-04-17T09:11:27.098Z,1.00
2023-04-17T09:13:54.458Z,1.00
2023-04-17T09:16:21.462Z,1.00
2023-04-17T09:18:49.378Z,1.00
2023-04-17T09:21:20.886Z,1.00
2023-04-17T09:23:50.733Z,1.00
2023-04-17T09:26:19.565Z,1.00
2023-04-17T09:29:08.873Z,1.00
2023-04-17T09:31:37.480Z,1.00
2023-04-17T09:34:07.589Z,1.00
2023-04-17T09:36:36.875Z,1.00
2023-04-17T09:39:16.051Z,1.00
2023-04-17T09:41:42.938Z,1.00
2023-04-17T09:44:12.256Z,1.00
2023-04-17T09:46:43.019Z,1.00
2023-04-17T09:49:18.653Z,1.00
2023-04-17T09:51:46.206Z,1.00
2023-04-17T09:54:15.980Z,1.00
2023-04-17T09:56:43.901Z,1.00
2023-04-17T09:59:10.983Z,1.00
2023-04-17T10:01:38.716Z,1.00
2023-04-17T10:04:06.224Z,1.00
2023-04-17T10:06:34.799Z,1.00
2023-04-17T10:09:02.606Z,1.00
2023-04-17T10:11:36.516Z,1.00
2023-04-17T10:14:09.767Z,1.00
2023-04-17T10:16:38.101Z,1.00
2023-04-17T10:19:24.783Z,99.90
2023-04-17T10:22:25.457Z,99.90
2023-04-17T10:25:12.921Z,99.90
2023-04-17T10:27:46.430Z,99.90
2023-04-17T10:30:14.286Z,99.90
2023-04-17T10:32:46.750Z,99.90
2023-04-17T10:35:35.930Z,1.00
2023-04-17T10:38:05.711Z,1.00
2023-04-17T10:40:34.386Z,1.00
2023-04-17T10:43:26.418Z,1.00
2023-04-17T10:45:55.659Z,1.00
2023-04-17T10:48:27.800Z,1.00
2023-04-17T10:50:56.004Z,1.00
2023-04-17T10:53:44.120Z,1.00
2023-04-17T10:56:12.669Z,1.00
2023-04-17T10:58:57.620Z,99.90
2023-04-17T11:01:27.566Z,99.90
2023-04-17T11:03:56.309Z,99.90
2023-04-17T11:06:27.474Z,99.90
2023-04-17T11:08:56.804Z,99.90
2023-04-17T11:11:40.022Z,99.90
2023-04-17T11:14:14.693Z,99.90
2023-04-17T11:16:43.579Z,99.90
2023-04-17T11:19:12.028Z,99.90
2023-04-17T11:21:40.035Z,99.90
2023-04-17T11:24:06.901Z,99.90
2023-04-17T11:26:43.113Z,99.90
2023-04-17T11:29:15.520Z,99.90
2023-04-17T11:31:42.834Z,99.90
2023-04-17T11:34:09.891Z,99.90
2023-04-17T11:36:37.180Z,99.90
2023-04-17T11:39:04.929Z,99.90
2023-04-17T11:41:37.076Z,99.90
2023-04-17T11:44:03.971Z,99.90
2023-04-17T11:46:32.186Z,99.90
2023-04-17T11:48:59.103Z,99.90
2023-04-17T11:51:27.072Z,99.90
2023-04-17T11:53:55.586Z,99.90
2023-04-17T11:56:28.580Z,99.90
2023-04-17T11:58:57.012Z,99.90
2023-04-17T12:01:25.916Z,99.90
2023-04-17T12:03:55.291Z,99.90
2023-04-17T12:06:22.979Z,99.90
2023-04-17T12:08:51.387Z,99.90
2023-04-17T12:11:27.256Z,99.90
2023-04-17T12:13:55.189Z,99.90
2023-04-17T12:16:24.844Z,99.90
2023-04-17T12:18:52.363Z,99.90
2023-04-17T12:21:20.803Z,99.90
2023-04-17T12:23:47.906Z,99.90
2023-04-17T12:26:15.100Z,99.90
2023-04-17T12:28:42.107Z,99.90
2023-04-17T12:31:09.786Z,99.90
2023-04-17T12:33:36.631Z,99.90
2023-04-17T12:36:05.675Z,99.90
2023-04-17T12:38:33.991Z,99.90
2023-04-17T12:41:01.293Z,99.90
2023-04-17T12:43:28.136Z,99.90
2023-04-17T12:45:55.228Z,99.90
2023-04-17T12:48:22.019Z,99.90
2023-04-17T12:50:49.122Z,99.90
2023-04-17T12:53:16.140Z,99.90
2023-04-17T12:55:44.722Z,99.90
2023-04-17T12:58:13.031Z,99.90
2023-04-17T13:00:44.088Z,99.90
2023-04-17T13:03:12.129Z,99.90
2023-04-17T13:05:39.860Z,99.90
2023-04-17T13:08:09.652Z,99.90
2023-04-17T13:10:36.888Z,99.90
2023-04-17T13:13:05.042Z,99.90
2023-04-17T13:15:32.028Z,99.90
2023-04-17T13:17:58.941Z,99.90
2023-04-17T13:20:26.145Z,99.90
2023-04-17T13:22:53.034Z,99.90
2023-04-17T13:25:20.411Z,99.90
2023-04-17T13:27:47.239Z,99.90
2023-04-17T13:30:15.845Z,99.90
2023-04-17T13:32:43.024Z,99.90
2023-04-17T13:35:13.352Z,99.90
2023-04-17T13:37:40.326Z,99.90
2023-04-17T13:40:11.036Z,99.90
2023-04-17T13:42:38.076Z,99.90
2023-04-17T13:45:06.467Z,99.90
2023-04-17T13:47:34.703Z,99.90
2023-04-17T13:50:01.979Z,99.90
2023-04-17T13:52:28.967Z,99.90
2023-04-17T13:54:56.201Z,99.90
2023-04-17T13:57:23.496Z,99.90
2023-04-17T13:59:50.413Z,99.90
2023-04-17T14:02:17.367Z,99.90
2023-04-17T14:04:45.895Z,99.90
2023-04-17T14:07:15.266Z,99.90
2023-04-17T14:09:42.395Z,99.90
2023-04-17T14:12:09.208Z,99.90
2023-04-17T14:14:36.271Z,99.90
2023-04-17T14:17:04.097Z,99.90
2023-04-17T14:19:31.455Z,99.90
2023-04-17T14:21:59.640Z,99.90
2023-04-17T14:24:26.564Z,99.90
2023-04-17T14:26:53.627Z,99.90
2023-04-17T14:29:21.199Z,99.90
2023-04-17T14:31:48.148Z,99.90
2023-04-17T14:34:15.592Z,99.90
2023-04-17T14:36:43.511Z,99.90
2023-04-17T14:39:12.418Z,99.90
2023-04-17T14:41:39.540Z,99.90
2023-04-17T14:44:06.893Z,99.90
2023-04-17T14:46:33.889Z,99.90
2023-04-17T14:49:00.760Z,99.90
2023-04-17T14:51:30.430Z,99.90
2023-04-17T14:53:58.151Z,99.90
2023-04-17T14:56:26.519Z,99.90
2023-04-17T14:58:53.343Z,99.90
2023-04-17T15:01:20.578Z,99.90
2023-04-17T15:03:48.689Z,99.90
2023-04-17T15:06:16.399Z,99.90
2023-04-17T15:08:43.443Z,99.90
2023-04-17T15:11:10.440Z,99.90
2023-04-17T15:13:40.319Z,99.90
2023-04-17T15:16:09.637Z,99.90
2023-04-17T15:18:36.606Z,99.90
2023-04-17T15:21:04.275Z,99.90
2023-04-17T15:23:31.648Z,99.90
2023-04-17T15:26:01.455Z,99.90
2023-04-17T15:28:28.624Z,99.90
2023-04-17T15:30:57.539Z,99.90
2023-04-17T15:33:24.321Z,99.90
2023-04-17T15:35:55.010Z,99.90
2023-04-17T15:38:22.028Z,99.90
2023-04-17T15:40:49.192Z,99.90
2023-04-17T15:43:16.300Z,99.90
2023-04-17T15:45:43.147Z,99.90
2023-04-17T15:48:11.508Z,99.90
2023-04-17T15:50:38.369Z,99.90
2023-04-17T15:53:06.157Z,99.90
2023-04-17T15:55:39.419Z,99.90
2023-04-17T15:58:06.251Z,99.90
2023-04-17T16:00:34.051Z,99.90
2023-04-17T16:03:01.039Z,99.90
2023-04-17T16:05:29.794Z,99.90
2023-04-17T16:07:56.604Z,99.90
2023-04-17T16:10:23.881Z,99.90
2023-04-17T16:12:52.083Z,99.90
2023-04-17T16:15:19.320Z,99.90
2023-04-17T16:17:48.325Z,99.90
2023-04-17T16:20:16.053Z,99.90
2023-04-17T16:22:44.194Z,99.90
2023-04-17T16:25:13.957Z,99.90
2023-04-17T16:27:40.913Z,99.90
2023-04-17T16:30:10.240Z,99.90
2023-04-17T16:32:37.183Z,99.90
2023-04-17T16:35:04.991Z,99.90
2023-04-17T16:37:31.863Z,99.90
2023-04-17T16:40:04.600Z,99.90
2023-04-17T16:42:32.100Z,1.00
2023-04-17T16:44:59.038Z,1.00
2023-04-17T16:47:26.034Z,1.00
2023-04-17T16:49:53.239Z,1.00
2023-04-17T16:52:20.056Z,1.00
2023-04-17T16:54:47.379Z,1.00
2023-04-17T16:57:15.709Z,1.00
2023-04-17T16:59:42.889Z,1.00
2023-04-17T17:02:09.743Z,1.00
2023-04-17T17:04:36.950Z,1.00
2023-04-17T17:07:03.825Z,1.00
2023-04-17T17:09:30.782Z,1.00
2023-04-17T17:11:57.629Z,1.00
2023-04-17T17:14:25.968Z,1.00
2023-04-17T17:16:53.335Z,1.00
2023-04-17T17:19:20.872Z,1.00
2023-04-17T17:21:47.706Z,1.00
2023-04-17T17:24:14.903Z,1.00
2023-04-17T17:26:41.751Z,1.00
2023-04-17T17:29:08.609Z,1.00
2023-04-17T17:31:36.766Z,1.00
2023-04-17T17:34:17.062Z,1.00
2023-04-17T17:36:49.376Z,1.00
2023-04-17T17:39:16.445Z,1.00
2023-04-17T17:41:45.210Z,1.00
2023-04-17T17:44:14.433Z,1.00
2023-04-17T17:46:42.922Z,1.00
2023-04-17T17:49:09.973Z,1.00
2023-04-17T17:51:36.892Z,1.00
2023-04-17T17:54:03.942Z,1.00
2023-04-17T17:56:31.081Z,1.00
2023-04-17T17:58:58.366Z,1.00
2023-04-17T18:01:25.353Z,1.00
2023-04-17T18:03:54.170Z,1.00
2023-04-17T18:06:21.479Z,1.00
2023-04-17T18:08:48.463Z,1.00
2023-04-17T18:11:15.372Z,1.00
2023-04-17T18:13:42.129Z,1.00
2023-04-17T18:16:09.995Z,1.00
2023-04-17T18:18:36.954Z,1.00
2023-04-17T18:21:07.765Z,1.00
2023-04-17T18:23:35.103Z,1.00
2023-04-17T18:26:03.234Z,1.00
2023-04-17T18:28:30.597Z,1.00
2023-04-17T18:30:57.552Z,1.00
2023-04-17T18:33:24.675Z,1.00
2023-04-17T18:35:51.965Z,1.00
2023-04-17T18:38:20.186Z,1.00
2023-04-17T18:40:47.276Z,1.00
2023-04-17T18:43:14.064Z,1.00
2023-04-17T18:45:41.343Z,1.00
2023-04-17T18:48:08.770Z,1.00
2023-04-17T18:50:38.696Z,1.00
2023-04-17T18:53:05.584Z,1.00
2023-04-17T18:55:35.665Z,1.00
2023-04-17T18:58:02.940Z,1.00
2023-04-17T19:00:29.859Z,1.00
2023-04-17T19:02:56.798Z,1.00
2023-04-17T19:05:25.592Z,1.00
2023-04-17T19:07:52.546Z,1.00
2023-04-17T19:10:19.597Z,1.00
2023-04-17T19:12:47.896Z,1.00
2023-04-17T19:15:18.004Z,1.00
2023-04-17T19:17:44.874Z,1.00
2023-04-17T19:20:12.162Z,1.00
2023-04-17T19:22:39.121Z,1.00
2023-04-17T19:25:06.701Z,1.00
2023-04-17T19:27:33.559Z,1.00
2023-04-17T19:30:01.826Z,1.00
2023-04-17T19:32:30.393Z,1.00
2023-04-17T19:34:59.183Z,1.00
2023-04-17T19:37:26.073Z,1.00
2023-04-17T19:39:56.491Z,1.00
2023-04-17T19:42:23.769Z,1.00
2023-04-17T19:44:50.658Z,1.00
2023-04-17T19:47:18.867Z,1.00
2023-04-17T19:49:46.071Z,1.00
2023-04-17T19:52:12.921Z,1.00
2023-04-17T19:54:40.514Z,1.00
2023-04-17T19:57:07.331Z,1.00
2023-04-17T19:59:34.599Z,1.00
2023-04-17T20:02:01.475Z,1.00
2023-04-17T20:04:30.065Z,1.00
2023-04-17T20:06:57.733Z,1.00
2023-04-17T20:09:24.927Z,1.00
2023-04-17T20:11:51.812Z,1.00
2023-04-17T20:14:19.997Z,1.00
2023-04-17T20:16:49.829Z,1.00
2023-04-17T20:19:16.693Z,1.00
2023-04-17T20:21:46.765Z,1.00
2023-04-17T20:24:15.715Z,1.00
2023-04-17T20:26:44.180Z,1.00
2023-04-17T20:29:11.548Z,1.00
2023-04-17T20:31:38.939Z,1.00
2023-04-17T20:34:06.037Z,1.00
2023-04-17T20:36:32.925Z,1.00
2023-04-17T20:39:01.417Z,1.00
2023-04-17T20:41:28.310Z,1.00
2023-04-17T20:43:59.423Z,1.00
2023-04-17T20:46:26.500Z,1.00
2023-04-17T20:48:53.711Z,1.00
2023-04-17T20:51:21.408Z,1.00
2023-04-17T20:53:48.583Z,1.00
2023-04-17T20:56:16.897Z,1.00
2023-04-17T20:58:44.402Z,1.00
2023-04-17T21:01:11.215Z,1.00
2023-04-17T21:03:38.653Z,1.00
2023-04-17T21:06:05.847Z,1.00
2023-04-17T21:08:32.794Z,1.00
2023-04-17T21:11:00.385Z,1.00
2023-04-17T21:13:28.879Z,1.00
2023-04-17T21:15:55.737Z,1.00
2023-04-17T21:18:23.067Z,1.00
2023-04-17T21:20:49.822Z,1.00
2023-04-17T21:23:16.949Z,1.00
2023-04-17T21:25:43.776Z,1.00
2023-04-17T21:28:10.945Z,1.00
2023-04-17T21:30:39.193Z,1.00
2023-04-17T21:33:06.370Z,1.00
2023-04-17T21:35:34.838Z,1.00
2023-04-17T21:38:01.686Z,1.00
2023-04-17T21:40:33.112Z,1.00
2023-04-17T21:43:00.584Z,1.00
2023-04-17T21:45:27.407Z,1.00
2023-04-17T21:47:56.283Z,1.00
2023-04-17T21:50:23.159Z,1.00
2023-04-17T21:52:50.411Z,1.00
2023-04-17T21:55:17.396Z,1.00
2023-04-17T21:57:44.520Z,1.00
2023-04-17T22:00:12.809Z,1.00
2023-04-17T22:02:40.233Z,1.00
2023-04-17T22:05:08.902Z,1.00
2023-04-17T22:07:47.284Z,1.00
2023-04-17T22:10:18.510Z,1.00
2023-04-17T22:12:45.740Z,1.00
2023-04-17T22:15:12.657Z,1.00
2023-04-17T22:17:40.357Z,1.00
2023-04-17T22:20:09.953Z,1.00
2023-04-17T22:22:37.074Z,1.00
2023-04-17T22:25:04.555Z,1.00
2023-04-17T22:27:31.726Z,1.00
2023-04-17T22:29:58.490Z,1.00
2023-04-17T22:32:25.657Z,1.00
2023-04-17T22:34:52.552Z,1.00
2023-04-17T22:37:21.434Z,1.00
2023-04-17T22:39:49.086Z,1.00
2023-04-17T22:42:16.223Z,1.00
2023-04-17T22:44:43.111Z,1.00
2023-04-17T22:47:10.126Z,1.00
2023-04-17T22:49:38.078Z,1.00
2023-04-17T22:52:06.489Z,1.00
2023-04-17T22:54:34.887Z,1.00
2023-04-17T22:57:04.814Z,1.00
2023-04-17T22:59:31.671Z,1.00
2023-04-17T23:01:59.068Z,1.00
2023-04-17T23:04:26.040Z,1.00
2023-04-17T23:06:53.166Z,1.00
2023-04-17T23:09:20.112Z,1.00
2023-04-17T23:11:49.971Z,1.00
2023-04-17T23:14:17.283Z,1.00
2023-04-17T23:16:44.113Z,1.00
2023-04-17T23:19:10.935Z,1.00
2023-04-17T23:21:37.824Z,1.00
2023-04-17T23:24:04.640Z,1.00
2023-04-17T23:26:31.999Z,1.00
2023-04-17T23:29:00.208Z,1.00
2023-04-17T23:31:27.367Z,1.00
2023-04-17T23:33:54.168Z,1.00
2023-04-17T23:36:21.235Z,1.00
2023-04-17T23:38:48.054Z,1.00
2023-04-17T23:41:14.928Z,1.00
2023-04-17T23:43:41.719Z,1.00
2023-04-17T23:46:10.262Z,2.00
2023-04-17T23:48:37.096Z,5.00
2023-04-17T23:51:04.635Z,6.40
2023-04-17T23:53:31.425Z,1.80
2023-04-17T23:55:58.571Z,2.00
2023-04-17T23:58:25.524Z,2.40
